createdAt,value
2022-12-11T00:02:44.133Z,20.67
2022-12-11T00:05:46.374Z,22.10
2022-12-11T00:08:50.674Z,21.57
2022-12-11T00:11:52.272Z,19.27
2022-12-11T00:14:53.841Z,20.23
2022-12-11T00:17:55.821Z,18.60
2022-12-11T00:21:04.501Z,18.77
2022-12-11T00:24:06.414Z,20.00
2022-12-11T00:27:08.045Z,22.37
2022-12-11T00:30:10.253Z,27.70
2022-12-11T00:33:13.399Z,23.83
2022-12-11T00:36:24.599Z,19.70
2022-12-11T00:39:26.185Z,19.90
2022-12-11T00:42:27.865Z,20.40
2022-12-11T00:45:29.577Z,20.27
2022-12-11T00:48:31.548Z,19.13
2022-12-11T00:51:33.484Z,19.57
2022-12-11T00:54:35.107Z,18.00
2022-12-11T00:57:36.889Z,18.97
2022-12-11T01:00:39.706Z,18.30
2022-12-11T01:03:41.382Z,18.67
2022-12-11T01:06:42.957Z,19.13
2022-12-11T01:10:23.243Z,18.13
2022-12-11T01:13:25.032Z,17.73
2022-12-11T01:16:26.744Z,17.87
2022-12-11T01:19:28.525Z,17.30
2022-12-11T01:22:31.164Z,17.00
2022-12-11T01:25:35.105Z,19.00
2022-12-11T01:28:37.022Z,17.20
2022-12-11T01:31:39.192Z,18.27
2022-12-11T01:34:40.818Z,18.17
2022-12-11T01:37:42.950Z,19.23
2022-12-11T01:40:49.421Z,19.07
2022-12-11T01:44:27.695Z,18.90
2022-12-11T01:47:29.280Z,17.73
2022-12-11T01:50:34.076Z,19.30
2022-12-11T01:53:40.133Z,18.57
2022-12-11T01:56:44.927Z,19.60
2022-12-11T01:59:47.202Z,18.87
2022-12-11T02:02:48.978Z,18.27
2022-12-11T02:05:50.840Z,19.80
2022-12-11T02:08:52.418Z,19.60
2022-12-11T02:12:39.189Z,19.77
2022-12-11T02:16:06.437Z,19.67
2022-12-11T02:19:29.470Z,22.20
2022-12-11T02:22:53.644Z,21.33
2022-12-11T02:26:33.225Z,21.40
2022-12-11T02:29:45.633Z,18.97
2022-12-11T02:32:58.873Z,19.50
2022-12-11T02:36:02.722Z,20.47
2022-12-11T02:39:07.236Z,20.47
2022-12-11T02:42:11.238Z,21.17
2022-12-11T02:45:14.324Z,21.00
2022-12-11T02:48:17.680Z,21.30
2022-12-11T02:51:25.005Z,21.70
2022-12-11T02:54:31.920Z,20.67
2022-12-11T02:57:39.620Z,20.83
2022-12-11T03:00:41.265Z,20.70
2022-12-11T03:03:43.153Z,23.10
2022-12-11T03:06:50.119Z,23.67
2022-12-11T03:09:52.455Z,23.37
2022-12-11T03:12:57.812Z,21.87
2022-12-11T03:16:33.245Z,22.00
2022-12-11T03:19:48.581Z,24.07
2022-12-11T03:23:17.510Z,23.17
2022-12-11T03:26:20.911Z,23.30
2022-12-11T03:29:37.771Z,23.17
2022-12-11T03:32:50.291Z,24.60
2022-12-11T03:35:56.280Z,25.40
2022-12-11T03:39:01.649Z,23.43
2022-12-11T03:42:07.678Z,25.50
2022-12-11T03:45:10.271Z,23.90
2022-12-11T03:48:14.565Z,25.10
2022-12-11T03:51:18.130Z,24.43
2022-12-11T03:54:20.990Z,25.90
2022-12-11T03:57:27.430Z,23.80
2022-12-11T04:00:29.517Z,25.50
2022-12-11T04:03:31.936Z,25.10
2022-12-11T04:06:33.516Z,24.97
2022-12-11T04:09:35.239Z,25.77
2022-12-11T04:12:36.808Z,25.03
2022-12-11T04:15:39.546Z,27.00
2022-12-11T04:18:59.999Z,26.80
2022-12-11T04:22:20.309Z,24.90
2022-12-11T04:25:21.867Z,27.13
2022-12-11T04:28:23.487Z,26.40
2022-12-11T04:31:25.159Z,28.07
2022-12-11T04:34:26.874Z,27.40
2022-12-11T04:37:28.652Z,25.80
2022-12-11T04:40:30.302Z,25.63
2022-12-11T04:43:31.854Z,25.10
2022-12-11T04:46:33.622Z,24.93
2022-12-11T04:49:35.255Z,26.60
2022-12-11T04:52:36.850Z,27.40
2022-12-11T04:55:39.625Z,27.27
2022-12-11T04:58:43.265Z,25.57
2022-12-11T05:01:44.889Z,26.30
2022-12-11T05:04:46.652Z,24.30
2022-12-11T05:07:48.281Z,23.50
2022-12-11T05:11:00.949Z,23.20
2022-12-11T05:14:02.511Z,24.30
2022-12-11T05:17:04.070Z,21.77
2022-12-11T05:20:06.341Z,23.30
2022-12-11T05:23:07.914Z,22.50
2022-12-11T05:26:14.175Z,23.70
2022-12-11T05:29:15.851Z,24.10
2022-12-11T05:32:17.414Z,23.80
2022-12-11T05:35:18.971Z,23.27
2022-12-11T05:38:20.836Z,23.93
2022-12-11T05:41:24.050Z,22.13
2022-12-11T05:44:25.806Z,21.20
2022-12-11T05:47:27.432Z,24.63
2022-12-11T05:50:28.998Z,23.80
2022-12-11T05:53:31.499Z,22.53
2022-12-11T05:56:34.766Z,24.70
2022-12-11T05:59:36.363Z,25.53
2022-12-11T06:02:38.077Z,28.10
2022-12-11T06:05:43.020Z,25.20
2022-12-11T06:08:44.595Z,28.93
2022-12-11T06:11:46.199Z,30.07
2022-12-11T06:14:47.748Z,28.40
2022-12-11T06:17:49.563Z,28.13
2022-12-11T06:20:51.119Z,27.70
2022-12-11T06:23:54.658Z,27.70
2022-12-11T06:26:56.290Z,28.30
2022-12-11T06:29:57.864Z,28.63
2022-12-11T06:32:59.720Z,27.70
2022-12-11T06:36:12.108Z,27.50
2022-12-11T06:39:13.918Z,26.77
2022-12-11T06:42:16.462Z,26.90
2022-12-11T06:45:18.158Z,28.37
2022-12-11T06:48:20.605Z,26.63
2022-12-11T06:51:23.243Z,25.90
2022-12-11T06:54:28.338Z,26.90
2022-12-11T06:57:30.220Z,28.97
2022-12-11T07:00:32.157Z,30.30
2022-12-11T07:03:34.071Z,36.60
2022-12-11T07:06:35.922Z,28.23
2022-12-11T07:09:42.691Z,28.70
2022-12-11T07:12:44.489Z,28.60
2022-12-11T07:15:46.439Z,26.10
2022-12-11T07:18:50.905Z,26.77
2022-12-11T07:21:53.626Z,25.70
2022-12-11T07:24:55.390Z,30.10
2022-12-11T07:27:57.762Z,26.07
2022-12-11T07:30:59.583Z,26.07
2022-12-11T07:34:05.417Z,26.30
2022-12-11T07:37:07.377Z,38.63
2022-12-11T07:40:09.889Z,27.80
2022-12-11T07:43:11.667Z,26.30
2022-12-11T07:46:20.274Z,27.10
2022-12-11T07:49:24.831Z,27.07
2022-12-11T07:52:26.618Z,27.97
2022-12-11T07:55:28.633Z,26.57
2022-12-11T07:58:33.530Z,26.50
2022-12-11T08:01:36.690Z,26.43
2022-12-11T08:04:39.575Z,25.90
2022-12-11T08:07:41.436Z,26.53
2022-12-11T08:10:43.282Z,25.80
2022-12-11T08:13:45.313Z,26.30
2022-12-11T08:16:49.135Z,26.93
2022-12-11T08:19:51.113Z,26.87
2022-12-11T08:22:59.186Z,26.23
2022-12-11T08:26:05.950Z,26.30
2022-12-11T08:29:08.460Z,27.50
2022-12-11T08:32:13.079Z,27.13
2022-12-11T08:35:15.505Z,25.50
2022-12-11T08:38:22.239Z,27.10
2022-12-11T08:41:29.388Z,28.70
2022-12-11T08:44:31.228Z,27.07
2022-12-11T08:47:35.918Z,26.53
2022-12-11T08:50:38.098Z,30.40
2022-12-11T08:53:40.170Z,28.10
2022-12-11T08:56:42.047Z,29.80
2022-12-11T08:59:43.862Z,29.80
2022-12-11T09:02:45.952Z,28.37
2022-12-11T09:05:47.940Z,27.13
2022-12-11T09:08:53.131Z,27.00
2022-12-11T09:12:05.732Z,27.30
2022-12-11T09:15:07.990Z,28.40
2022-12-11T09:18:09.864Z,30.50
2022-12-11T09:21:15.199Z,28.93
2022-12-11T09:24:17.187Z,27.50
2022-12-11T09:27:21.284Z,29.50
2022-12-11T09:30:23.508Z,28.40
2022-12-11T09:33:25.429Z,26.90
2022-12-11T09:36:30.263Z,26.90
2022-12-11T09:39:32.135Z,27.20
2022-12-11T09:42:48.388Z,28.27
2022-12-11T09:45:51.361Z,28.33
2022-12-11T09:48:53.964Z,27.07
2022-12-11T09:52:05.907Z,28.00
2022-12-11T09:55:17.441Z,26.57
2022-12-11T09:58:44.527Z,25.43
2022-12-11T10:02:01.797Z,28.00
2022-12-11T10:05:41.079Z,25.10
2022-12-11T10:08:47.767Z,26.20
2022-12-11T10:12:00.461Z,26.23
2022-12-11T10:15:24.680Z,27.30
2022-12-11T10:18:29.234Z,26.30
2022-12-11T10:21:41.313Z,27.90
2022-12-11T10:25:10.800Z,27.27
2022-12-11T10:28:14.948Z,24.23
2022-12-11T10:31:42.051Z,25.40
2022-12-11T10:34:49.504Z,25.20
2022-12-11T10:37:52.343Z,25.07
2022-12-11T10:41:02.910Z,26.90
2022-12-11T10:44:16.600Z,24.80
2022-12-11T10:47:18.814Z,25.03
2022-12-11T10:50:25.836Z,25.50
2022-12-11T10:53:29.270Z,24.77
2022-12-11T10:56:33.582Z,26.80
2022-12-11T10:59:43.757Z,25.03
2022-12-11T11:02:48.449Z,23.90
2022-12-11T11:06:01.253Z,25.30
2022-12-11T11:09:03.828Z,27.50
2022-12-11T11:12:27.278Z,27.77
2022-12-11T11:15:30.933Z,25.03
2022-12-11T11:18:34.088Z,22.83
2022-12-11T11:21:36.226Z,23.50
2022-12-11T11:24:41.635Z,25.10
2022-12-11T11:27:50.106Z,24.60
2022-12-11T11:31:05.407Z,25.07
2022-12-11T11:34:10.875Z,24.87
2022-12-11T11:37:31.555Z,25.30
2022-12-11T11:40:53.455Z,23.20
2022-12-11T11:44:03.249Z,25.57
2022-12-11T11:47:14.689Z,25.37
2022-12-11T11:50:22.158Z,25.93
2022-12-11T11:53:37.348Z,24.90
2022-12-11T11:56:39.487Z,32.17
2022-12-11T11:59:53.939Z,27.17
2022-12-11T12:03:02.052Z,26.77
2022-12-11T12:06:31.430Z,26.23
2022-12-11T12:09:56.029Z,26.50
2022-12-11T12:13:03.376Z,27.90
2022-12-11T12:16:44.147Z,32.80
2022-12-11T12:20:02.309Z,31.40
2022-12-11T12:23:44.952Z,28.87
2022-12-11T12:26:55.802Z,26.43
2022-12-11T12:30:18.763Z,50.67
2022-12-11T12:33:34.051Z,31.30
2022-12-11T12:36:57.049Z,36.20
2022-12-11T12:40:07.651Z,55.97
2022-12-11T12:43:31.349Z,32.93
2022-12-11T12:46:41.986Z,26.30
2022-12-11T12:49:47.017Z,25.67
2022-12-11T12:52:51.389Z,32.50
2022-12-11T12:55:53.896Z,28.57
2022-12-11T12:58:55.709Z,28.90
2022-12-11T13:02:00.720Z,27.97
2022-12-11T13:05:21.937Z,25.20
2022-12-11T13:08:29.435Z,31.23
2022-12-11T13:11:34.676Z,28.27
2022-12-11T13:14:36.353Z,24.67
2022-12-11T13:17:41.294Z,26.60
2022-12-11T13:20:51.146Z,25.10
2022-12-11T13:23:53.155Z,24.50
2022-12-11T13:26:55.283Z,25.27
2022-12-11T13:30:23.514Z,25.13
2022-12-11T13:33:27.034Z,26.43
2022-12-11T13:36:39.791Z,30.87
2022-12-11T13:39:48.094Z,27.00
2022-12-11T13:42:58.320Z,26.27
2022-12-11T13:46:05.753Z,28.27
2022-12-11T13:49:25.668Z,38.87
2022-12-11T13:52:28.636Z,25.23
2022-12-11T13:55:33.588Z,26.43
2022-12-11T13:58:39.055Z,32.63
2022-12-11T14:01:40.787Z,23.03
2022-12-11T14:04:42.989Z,24.70
2022-12-11T14:07:50.706Z,25.40
2022-12-11T14:10:53.984Z,27.10
2022-12-11T14:13:59.422Z,24.07
2022-12-11T14:17:04.693Z,26.23
2022-12-11T14:20:15.015Z,26.50
2022-12-11T14:23:25.869Z,22.23
2022-12-11T14:26:30.356Z,23.97
2022-12-11T14:29:33.642Z,27.37
2022-12-11T14:32:39.594Z,27.00
2022-12-11T14:35:46.733Z,28.33
2022-12-11T14:39:02.813Z,26.47
2022-12-11T14:42:11.752Z,24.80
2022-12-11T14:45:33.226Z,28.17
2022-12-11T14:48:44.738Z,26.87
2022-12-11T14:51:47.536Z,24.33
2022-12-11T14:54:54.698Z,23.90
2022-12-11T14:58:04.635Z,25.80
2022-12-11T15:01:21.540Z,24.40
2022-12-11T15:04:28.818Z,23.33
2022-12-11T15:07:30.788Z,27.20
2022-12-11T15:10:41.473Z,25.70
2022-12-11T15:13:58.741Z,25.53
2022-12-11T15:17:02.940Z,25.80
2022-12-11T15:20:11.651Z,25.10
2022-12-11T15:23:18.696Z,24.40
2022-12-11T15:26:31.997Z,25.90
2022-12-11T15:29:37.852Z,28.43
2022-12-11T15:32:39.603Z,28.37
2022-12-11T15:35:54.280Z,25.47
2022-12-11T15:38:56.376Z,25.13
